sensor_id;sensor_type;location;lat;lon;timestamp;P1;durP1;ratioP1;P2;durP2;ratioP2
79751;SDS011;69234;47.446;21.636;2024-03-29T00:00:27;2.40;;;2.23;;
79751;SDS011;69234;47.446;21.636;2024-03-29T00:00:58;2.33;;;2.23;;
79751;SDS011;69234;47.446;21.636;2024-03-29T00:01:30;2.47;;;2.33;;
79751;SDS011;69234;47.446;21.636;2024-03-29T00:02:01;2.67;;;2.50;;
79751;SDS011;69234;47.446;21.636;2024-03-29T00:02:32;2.83;;;2.73;;
79751;SDS011;69234;47.446;21.636;2024-03-29T00:03:03;2.57;;;2.47;;
79751;SDS011;69234;47.446;21.636;2024-03-29T00:03:35;2.97;;;2.87;;
79751;SDS011;69234;47.446;21.636;2024-03-29T00:04:06;2.33;;;2.27;;
79751;SDS011;69234;47.446;21.636;2024-03-29T00:04:36;2.17;;;2.10;;
79751;SDS011;69234;47.446;21.636;2024-03-29T00:05:07;2.07;;;1.97;;
79751;SDS011;69234;47.446;21.636;2024-03-29T00:05:38;1.97;;;1.90;;
79751;SDS011;69234;47.446;21.636;2024-03-29T00:06:09;2.07;;;1.97;;
79751;SDS011;69234;47.446;21.636;2024-03-29T00:06:40;2.03;;;1.93;;
79751;SDS011;69234;47.446;21.636;2024-03-29T00:07:11;2.00;;;1.90;;
79751;SDS011;69234;47.446;21.636;2024-03-29T00:07:42;2.10;;;2.00;;
79751;SDS011;69234;47.446;21.636;2024-03-29T00:08:13;1.93;;;1.83;;
79751;SDS011;69234;47.446;21.636;2024-03-29T00:08:44;2.07;;;2.00;;
79751;SDS011;69234;47.446;21.636;2024-03-29T00:09:15;2.07;;;2.03;;
79751;SDS011;69234;47.446;21.636;2024-03-29T00:09:46;1.90;;;1.83;;
79751;SDS011;69234;47.446;21.636;2024-03-29T00:10:17;1.77;;;1.70;;
79751;SDS011;69234;47.446;21.636;2024-03-29T00:10:47;2.07;;;2.03;;
79751;SDS011;69234;47.446;21.636;2024-03-29T00:11:18;1.83;;;1.80;;
79751;SDS011;69234;47.446;21.636;2024-03-29T00:11:49;1.77;;;1.67;;
79751;SDS011;69234;47.446;21.636;2024-03-29T00:12:20;2.37;;;2.27;;
79751;SDS011;69234;47.446;21.636;2024-03-29T00:12:51;2.27;;;2.17;;
79751;SDS011;69234;47.446;21.636;2024-03-29T00:13:22;1.93;;;1.83;;
79751;SDS011;69234;47.446;21.636;2024-03-29T00:13:53;1.60;;;1.50;;
79751;SDS011;69234;47.446;21.636;2024-03-29T00:14:24;1.77;;;1.70;;
79751;SDS011;69234;47.446;21.636;2024-03-29T00:14:56;2.00;;;1.90;;
79751;SDS011;69234;47.446;21.636;2024-03-29T00:15:27;2.03;;;1.90;;
79751;SDS011;69234;47.446;21.636;2024-03-29T00:15:59;1.30;;;1.23;;
79751;SDS011;69234;47.446;21.636;2024-03-29T00:16:30;1.17;;;1.07;;
79751;SDS011;69234;47.446;21.636;2024-03-29T00:17:01;1.07;;;1.03;;
79751;SDS011;69234;47.446;21.636;2024-03-29T00:17:34;1.13;;;1.03;;
79751;SDS011;69234;47.446;21.636;2024-03-29T00:18:05;1.07;;;1.03;;
79751;SDS011;69234;47.446;21.636;2024-03-29T00:18:37;1.03;;;0.97;;
79751;SDS011;69234;47.446;21.636;2024-03-29T00:19:08;1.33;;;1.30;;
79751;SDS011;69234;47.446;21.636;2024-03-29T00:19:39;1.33;;;1.30;;
79751;SDS011;69234;47.446;21.636;2024-03-29T00:20:10;1.27;;;1.20;;
79751;SDS011;69234;47.446;21.636;2024-03-29T00:20:42;1.30;;;1.23;;
79751;SDS011;69234;47.446;21.636;2024-03-29T00:21:13;1.37;;;1.27;;
79751;SDS011;69234;47.446;21.636;2024-03-29T00:21:44;1.33;;;1.27;;
79751;SDS011;69234;47.446;21.636;2024-03-29T00:22:15;1.17;;;1.13;;
79751;SDS011;69234;47.446;21.636;2024-03-29T00:22:46;0.93;;;0.90;;
79751;SDS011;69234;47.446;21.636;2024-03-29T00:23:17;1.03;;;1.00;;
79751;SDS011;69234;47.446;21.636;2024-03-29T00:23:48;1.13;;;1.07;;
79751;SDS011;69234;47.446;21.636;2024-03-29T00:24:21;1.10;;;1.07;;
79751;SDS011;69234;47.446;21.636;2024-03-29T00:24:52;0.73;;;0.70;;
79751;SDS011;69234;47.446;21.636;2024-03-29T00:25:22;1.13;;;1.10;;
79751;SDS011;69234;47.446;21.636;2024-03-29T00:25:53;1.33;;;1.23;;
79751;SDS011;69234;47.446;21.636;2024-03-29T00:26:28;0.90;;;0.90;;
79751;SDS011;69234;47.446;21.636;2024-03-29T00:26:59;1.00;;;0.93;;
79751;SDS011;69234;47.446;21.636;2024-03-29T00:27:30;1.07;;;1.07;;
79751;SDS011;69234;47.446;21.636;2024-03-29T00:28:01;1.10;;;1.07;;
79751;SDS011;69234;47.446;21.636;2024-03-29T00:28:33;1.10;;;1.03;;
79751;SDS011;69234;47.446;21.636;2024-03-29T00:29:04;1.27;;;1.17;;
79751;SDS011;69234;47.446;21.636;2024-03-29T00:29:35;1.10;;;1.03;;
79751;SDS011;69234;47.446;21.636;2024-03-29T00:30:07;1.27;;;1.20;;
79751;SDS011;69234;47.446;21.636;2024-03-29T00:30:38;1.23;;;1.17;;
79751;SDS011;69234;47.446;21.636;2024-03-29T00:31:09;1.23;;;1.20;;
79751;SDS011;69234;47.446;21.636;2024-03-29T00:31:40;1.27;;;1.23;;
79751;SDS011;69234;47.446;21.636;2024-03-29T00:32:11;1.10;;;1.07;;
79751;SDS011;69234;47.446;21.636;2024-03-29T00:32:42;1.10;;;1.00;;
79751;SDS011;69234;47.446;21.636;2024-03-29T00:33:12;0.93;;;0.87;;
79751;SDS011;69234;47.446;21.636;2024-03-29T00:33:43;1.07;;;1.07;;
79751;SDS011;69234;47.446;21.636;2024-03-29T00:34:14;1.27;;;1.27;;
79751;SDS011;69234;47.446;21.636;2024-03-29T00:34:45;1.13;;;1.07;;
79751;SDS011;69234;47.446;21.636;2024-03-29T00:35:16;1.13;;;1.10;;
79751;SDS011;69234;47.446;21.636;2024-03-29T00:35:47;1.37;;;1.27;;
79751;SDS011;69234;47.446;21.636;2024-03-29T00:36:18;1.27;;;1.23;;
79751;SDS011;69234;47.446;21.636;2024-03-29T00:36:49;1.10;;;1.10;;
79751;SDS011;69234;47.446;21.636;2024-03-29T00:37:20;0.93;;;0.90;;
79751;SDS011;69234;47.446;21.636;2024-03-29T00:37:51;1.23;;;1.17;;
79751;SDS011;69234;47.446;21.636;2024-03-29T00:38:22;1.20;;;1.17;;
79751;SDS011;69234;47.446;21.636;2024-03-29T00:38:52;1.30;;;1.23;;
79751;SDS011;69234;47.446;21.636;2024-03-29T00:39:24;1.33;;;1.33;;
79751;SDS011;69234;47.446;21.636;2024-03-29T00:39:55;1.23;;;1.20;;
79751;SDS011;69234;47.446;21.636;2024-03-29T00:40:26;1.50;;;1.43;;
79751;SDS011;69234;47.446;21.636;2024-03-29T00:40:57;1.60;;;1.60;;
79751;SDS011;69234;47.446;21.636;2024-03-29T00:41:28;1.50;;;1.50;;
79751;SDS011;69234;47.446;21.636;2024-03-29T00:41:59;1.40;;;1.40;;
79751;SDS011;69234;47.446;21.636;2024-03-29T00:42:30;1.27;;;1.27;;
79751;SDS011;69234;47.446;21.636;2024-03-29T00:43:01;1.43;;;1.43;;
79751;SDS011;69234;47.446;21.636;2024-03-29T00:43:31;1.60;;;1.60;;
79751;SDS011;69234;47.446;21.636;2024-03-29T00:44:03;1.60;;;1.60;;
79751;SDS011;69234;47.446;21.636;2024-03-29T00:44:34;1.80;;;1.80;;
79751;SDS011;69234;47.446;21.636;2024-03-29T00:45:08;1.60;;;1.60;;
79751;SDS011;69234;47.446;21.636;2024-03-29T00:45:39;1.53;;;1.53;;
79751;SDS011;69234;47.446;21.636;2024-03-29T00:46:11;1.70;;;1.70;;
79751;SDS011;69234;47.446;21.636;2024-03-29T00:46:42;1.53;;;1.53;;
79751;SDS011;69234;47.446;21.636;2024-03-29T00:47:13;1.60;;;1.60;;
79751;SDS011;69234;47.446;21.636;2024-03-29T00:47:44;1.47;;;1.47;;
79751;SDS011;69234;47.446;21.636;2024-03-29T00:48:14;1.43;;;1.43;;
79751;SDS011;69234;47.446;21.636;2024-03-29T00:48:47;1.43;;;1.43;;
79751;SDS011;69234;47.446;21.636;2024-03-29T00:49:18;1.50;;;1.50;;
79751;SDS011;69234;47.446;21.636;2024-03-29T00:49:49;1.80;;;1.80;;
79751;SDS011;69234;47.446;21.636;2024-03-29T00:50:20;1.97;;;1.97;;
79751;SDS011;69234;47.446;21.636;2024-03-29T00:50:51;1.73;;;1.73;;
79751;SDS011;69234;47.446;21.636;2024-03-29T00:51:22;1.90;;;1.90;;
79751;SDS011;69234;47.446;21.636;2024-03-29T00:51:53;1.77;;;1.77;;
79751;SDS011;69234;47.446;21.636;2024-03-29T00:52:24;2.20;;;2.20;;
79751;SDS011;69234;47.446;21.636;2024-03-29T00:52:55;1.83;;;1.83;;
79751;SDS011;69234;47.446;21.636;2024-03-29T00:53:26;1.80;;;1.80;;
79751;SDS011;69234;47.446;21.636;2024-03-29T00:53:57;1.63;;;1.63;;
79751;SDS011;69234;47.446;21.636;2024-03-29T00:54:28;1.63;;;1.63;;
79751;SDS011;69234;47.446;21.636;2024-03-29T00:54:59;1.53;;;1.53;;
79751;SDS011;69234;47.446;21.636;2024-03-29T00:55:30;1.47;;;1.47;;
79751;SDS011;69234;47.446;21.636;2024-03-29T00:56:01;1.17;;;1.17;;
79751;SDS011;69234;47.446;21.636;2024-03-29T00:56:32;1.30;;;1.30;;
79751;SDS011;69234;47.446;21.636;2024-03-29T00:57:03;1.33;;;1.33;;
79751;SDS011;69234;47.446;21.636;2024-03-29T00:57:35;1.53;;;1.53;;
79751;SDS011;69234;47.446;21.636;2024-03-29T00:58:06;1.63;;;1.63;;
79751;SDS011;69234;47.446;21.636;2024-03-29T00:58:37;1.33;;;1.33;;
79751;SDS011;69234;47.446;21.636;2024-03-29T00:59:08;1.33;;;1.33;;
79751;SDS011;69234;47.446;21.636;2024-03-29T00:59:39;1.23;;;1.23;;
79751;SDS011;69234;47.446;21.636;2024-03-29T01:00:10;1.27;;;1.27;;
79751;SDS011;69234;47.446;21.636;2024-03-29T01:00:41;1.23;;;1.23;;
79751;SDS011;69234;47.446;21.636;2024-03-29T01:01:12;1.33;;;1.33;;
79751;SDS011;69234;47.446;21.636;2024-03-29T01:01:43;1.33;;;1.33;;
79751;SDS011;69234;47.446;21.636;2024-03-29T01:02:15;1.40;;;1.40;;
79751;SDS011;69234;47.446;21.636;2024-03-29T01:02:46;1.70;;;1.70;;
79751;SDS011;69234;47.446;21.636;2024-03-29T01:03:17;1.33;;;1.33;;
79751;SDS011;69234;47.446;21.636;2024-03-29T01:03:48;1.33;;;1.33;;
79751;SDS011;69234;47.446;21.636;2024-03-29T01:04:19;1.23;;;1.23;;
79751;SDS011;69234;47.446;21.636;2024-03-29T01:04:50;1.03;;;1.03;;
79751;SDS011;69234;47.446;21.636;2024-03-29T01:05:21;1.17;;;1.17;;
79751;SDS011;69234;47.446;21.636;2024-03-29T01:05:52;0.97;;;0.97;;
79751;SDS011;69234;47.446;21.636;2024-03-29T01:06:24;0.97;;;0.97;;
79751;SDS011;69234;47.446;21.636;2024-03-29T01:06:55;0.97;;;0.97;;
79751;SDS011;69234;47.446;21.636;2024-03-29T01:07:26;1.03;;;1.03;;
79751;SDS011;69234;47.446;21.636;2024-03-29T01:07:57;1.03;;;1.03;;
79751;SDS011;69234;47.446;21.636;2024-03-29T01:08:28;0.93;;;0.93;;
79751;SDS011;69234;47.446;21.636;2024-03-29T01:09:00;0.97;;;0.97;;
79751;SDS011;69234;47.446;21.636;2024-03-29T01:09:31;1.00;;;1.00;;
79751;SDS011;69234;47.446;21.636;2024-03-29T01:10:02;0.97;;;0.97;;
79751;SDS011;69234;47.446;21.636;2024-03-29T01:10:33;1.03;;;1.03;;
79751;SDS011;69234;47.446;21.636;2024-03-29T01:11:04;1.00;;;1.00;;
79751;SDS011;69234;47.446;21.636;2024-03-29T01:11:35;1.00;;;1.00;;
79751;SDS011;69234;47.446;21.636;2024-03-29T01:12:06;1.07;;;1.07;;
79751;SDS011;69234;47.446;21.636;2024-03-29T01:12:37;1.00;;;1.00;;
79751;SDS011;69234;47.446;21.636;2024-03-29T01:13:09;1.27;;;1.27;;
79751;SDS011;69234;47.446;21.636;2024-03-29T01:13:40;1.33;;;1.33;;
79751;SDS011;69234;47.446;21.636;2024-03-29T01:14:11;1.43;;;1.43;;
79751;SDS011;69234;47.446;21.636;2024-03-29T01:14:42;1.13;;;1.13;;
79751;SDS011;69234;47.446;21.636;2024-03-29T01:15:13;1.17;;;1.17;;
79751;SDS011;69234;47.446;21.636;2024-03-29T01:15:44;1.30;;;1.30;;
79751;SDS011;69234;47.446;21.636;2024-03-29T01:16:15;1.33;;;1.33;;
79751;SDS011;69234;47.446;21.636;2024-03-29T01:16:46;1.37;;;1.37;;
79751;SDS011;69234;47.446;21.636;2024-03-29T01:17:17;1.30;;;1.30;;
79751;SDS011;69234;47.446;21.636;2024-03-29T01:17:48;1.20;;;1.20;;
79751;SDS011;69234;47.446;21.636;2024-03-29T01:18:19;1.33;;;1.33;;
79751;SDS011;69234;47.446;21.636;2024-03-29T01:18:50;1.47;;;1.47;;
79751;SDS011;69234;47.446;21.636;2024-03-29T01:19:22;1.50;;;1.50;;
79751;SDS011;69234;47.446;21.636;2024-03-29T01:19:53;1.63;;;1.63;;
79751;SDS011;69234;47.446;21.636;2024-03-29T01:20:24;1.53;;;1.53;;
79751;SDS011;69234;47.446;21.636;2024-03-29T01:20:55;1.50;;;1.50;;
79751;SDS011;69234;47.446;21.636;2024-03-29T01:21:26;1.37;;;1.37;;
79751;SDS011;69234;47.446;21.636;2024-03-29T01:21:57;1.67;;;1.67;;
79751;SDS011;69234;47.446;21.636;2024-03-29T01:22:28;1.47;;;1.47;;
79751;SDS011;69234;47.446;21.636;2024-03-29T01:22:59;1.77;;;1.77;;
79751;SDS011;69234;47.446;21.636;2024-03-29T01:23:30;1.67;;;1.67;;
79751;SDS011;69234;47.446;21.636;2024-03-29T01:24:01;1.40;;;1.40;;
79751;SDS011;69234;47.446;21.636;2024-03-29T01:24:33;1.50;;;1.50;;
79751;SDS011;69234;47.446;21.636;2024-03-29T01:25:04;1.63;;;1.63;;
79751;SDS011;69234;47.446;21.636;2024-03-29T01:25:38;1.63;;;1.63;;
79751;SDS011;69234;47.446;21.636;2024-03-29T01:26:09;1.63;;;1.63;;
79751;SDS011;69234;47.446;21.636;2024-03-29T01:26:44;1.50;;;1.50;;
79751;SDS011;69234;47.446;21.636;2024-03-29T01:27:15;1.60;;;1.60;;
79751;SDS011;69234;47.446;21.636;2024-03-29T01:27:46;1.43;;;1.43;;
79751;SDS011;69234;47.446;21.636;2024-03-29T01:28:17;1.37;;;1.37;;
79751;SDS011;69234;47.446;21.636;2024-03-29T01:28:48;1.67;;;1.67;;
79751;SDS011;69234;47.446;21.636;2024-03-29T01:29:19;1.70;;;1.70;;
79751;SDS011;69234;47.446;21.636;2024-03-29T01:29:50;1.50;;;1.50;;
79751;SDS011;69234;47.446;21.636;2024-03-29T01:30:21;1.33;;;1.33;;
79751;SDS011;69234;47.446;21.636;2024-03-29T01:30:53;1.33;;;1.33;;
79751;SDS011;69234;47.446;21.636;2024-03-29T01:31:25;1.17;;;1.17;;
79751;SDS011;69234;47.446;21.636;2024-03-29T01:31:56;1.13;;;1.13;;
79751;SDS011;69234;47.446;21.636;2024-03-29T01:32:27;1.37;;;1.37;;
79751;SDS011;69234;47.446;21.636;2024-03-29T01:32:58;1.17;;;1.17;;
79751;SDS011;69234;47.446;21.636;2024-03-29T01:33:31;1.30;;;1.30;;
79751;SDS011;69234;47.446;21.636;2024-03-29T01:34:07;1.17;;;1.17;;
79751;SDS011;69234;47.446;21.636;2024-03-29T01:34:38;1.10;;;1.10;;
79751;SDS011;69234;47.446;21.636;2024-03-29T01:35:09;1.37;;;1.37;;
79751;SDS011;69234;47.446;21.636;2024-03-29T01:35:40;1.30;;;1.30;;
79751;SDS011;69234;47.446;21.636;2024-03-29T01:36:11;1.23;;;1.23;;
79751;SDS011;69234;47.446;21.636;2024-03-29T01:36:42;1.10;;;1.10;;
79751;SDS011;69234;47.446;21.636;2024-03-29T01:37:14;0.87;;;0.87;;
79751;SDS011;69234;47.446;21.636;2024-03-29T01:37:44;0.80;;;0.80;;
79751;SDS011;69234;47.446;21.636;2024-03-29T01:38:15;1.23;;;1.23;;
79751;SDS011;69234;47.446;21.636;2024-03-29T01:38:46;0.93;;;0.93;;
79751;SDS011;69234;47.446;21.636;2024-03-29T01:39:19;0.93;;;0.93;;
79751;SDS011;69234;47.446;21.636;2024-03-29T01:39:55;1.07;;;1.07;;
79751;SDS011;69234;47.446;21.636;2024-03-29T01:40:25;0.93;;;0.93;;
79751;SDS011;69234;47.446;21.636;2024-03-29T01:40:56;0.87;;;0.87;;
79751;SDS011;69234;47.446;21.636;2024-03-29T01:41:27;0.93;;;0.93;;
79751;SDS011;69234;47.446;21.636;2024-03-29T01:41:58;0.83;;;0.83;;
79751;SDS011;69234;47.446;21.636;2024-03-29T01:42:29;0.73;;;0.73;;
79751;SDS011;69234;47.446;21.636;2024-03-29T01:43:00;0.80;;;0.80;;
79751;SDS011;69234;47.446;21.636;2024-03-29T01:43:32;0.97;;;0.97;;
79751;SDS011;69234;47.446;21.636;2024-03-29T01:44:03;0.90;;;0.90;;
79751;SDS011;69234;47.446;21.636;2024-03-29T01:44:34;0.87;;;0.87;;
79751;SDS011;69234;47.446;21.636;2024-03-29T01:45:07;0.53;;;0.53;;
79751;SDS011;69234;47.446;21.636;2024-03-29T01:45:38;0.87;;;0.87;;
79751;SDS011;69234;47.446;21.636;2024-03-29T01:46:11;0.87;;;0.87;;
79751;SDS011;69234;47.446;21.636;2024-03-29T01:46:42;0.97;;;0.97;;
79751;SDS011;69234;47.446;21.636;2024-03-29T01:47:15;0.97;;;0.97;;
79751;SDS011;69234;47.446;21.636;2024-03-29T01:47:48;0.83;;;0.83;;
79751;SDS011;69234;47.446;21.636;2024-03-29T01:48:20;0.73;;;0.73;;
79751;SDS011;69234;47.446;21.636;2024-03-29T01:48:55;0.73;;;0.73;;
79751;SDS011;69234;47.446;21.636;2024-03-29T01:49:27;0.63;;;0.63;;
79751;SDS011;69234;47.446;21.636;2024-03-29T01:49:59;0.63;;;0.63;;
79751;SDS011;69234;47.446;21.636;2024-03-29T01:50:31;0.67;;;0.67;;
79751;SDS011;69234;47.446;21.636;2024-03-29T01:51:02;0.73;;;0.73;;
79751;SDS011;69234;47.446;21.636;2024-03-29T01:51:35;0.77;;;0.77;;
79751;SDS011;69234;47.446;21.636;2024-03-29T01:52:10;0.67;;;0.67;;
79751;SDS011;69234;47.446;21.636;2024-03-29T01:52:42;0.60;;;0.60;;
79751;SDS011;69234;47.446;21.636;2024-03-29T01:53:14;0.63;;;0.63;;
79751;SDS011;69234;47.446;21.636;2024-03-29T01:53:48;0.93;;;0.93;;
79751;SDS011;69234;47.446;21.636;2024-03-29T01:54:23;0.87;;;0.87;;
79751;SDS011;69234;47.446;21.636;2024-03-29T01:54:54;0.63;;;0.63;;
79751;SDS011;69234;47.446;21.636;2024-03-29T01:55:25;0.73;;;0.73;;
79751;SDS011;69234;47.446;21.636;2024-03-29T01:55:59;0.67;;;0.67;;
79751;SDS011;69234;47.446;21.636;2024-03-29T01:56:31;0.67;;;0.67;;
79751;SDS011;69234;47.446;21.636;2024-03-29T01:57:03;0.70;;;0.70;;
79751;SDS011;69234;47.446;21.636;2024-03-29T01:57:34;0.53;;;0.53;;
79751;SDS011;69234;47.446;21.636;2024-03-29T01:58:06;0.73;;;0.73;;
79751;SDS011;69234;47.446;21.636;2024-03-29T01:58:39;0.80;;;0.80;;
79751;SDS011;69234;47.446;21.636;2024-03-29T01:59:13;0.80;;;0.80;;
79751;SDS011;69234;47.446;21.636;2024-03-29T01:59:46;0.73;;;0.73;;
79751;SDS011;69234;47.446;21.636;2024-03-29T02:00:18;0.63;;;0.63;;
79751;SDS011;69234;47.446;21.636;2024-03-29T02:00:54;0.77;;;0.77;;
79751;SDS011;69234;47.446;21.636;2024-03-29T02:01:31;0.70;;;0.70;;
79751;SDS011;69234;47.446;21.636;2024-03-29T02:02:03;0.57;;;0.57;;
79751;SDS011;69234;47.446;21.636;2024-03-29T02:02:36;0.60;;;0.60;;
79751;SDS011;69234;47.446;21.636;2024-03-29T02:03:08;0.73;;;0.73;;
79751;SDS011;69234;47.446;21.636;2024-03-29T02:03:39;0.77;;;0.77;;
79751;SDS011;69234;47.446;21.636;2024-03-29T02:04:11;0.73;;;0.73;;
79751;SDS011;69234;47.446;21.636;2024-03-29T02:04:42;0.67;;;0.67;;
79751;SDS011;69234;47.446;21.636;2024-03-29T02:05:13;0.70;;;0.70;;
79751;SDS011;69234;47.446;21.636;2024-03-29T02:05:45;0.70;;;0.70;;
79751;SDS011;69234;47.446;21.636;2024-03-29T02:06:18;0.63;;;0.63;;
79751;SDS011;69234;47.446;21.636;2024-03-29T02:06:49;0.60;;;0.60;;
79751;SDS011;69234;47.446;21.636;2024-03-29T02:07:21;0.60;;;0.60;;
79751;SDS011;69234;47.446;21.636;2024-03-29T02:07:53;0.60;;;0.60;;
79751;SDS011;69234;47.446;21.636;2024-03-29T02:08:25;0.60;;;0.60;;
79751;SDS011;69234;47.446;21.636;2024-03-29T02:08:56;0.57;;;0.57;;
79751;SDS011;69234;47.446;21.636;2024-03-29T02:09:27;0.47;;;0.47;;
79751;SDS011;69234;47.446;21.636;2024-03-29T02:09:58;0.67;;;0.67;;
79751;SDS011;69234;47.446;21.636;2024-03-29T02:10:29;0.67;;;0.67;;
79751;SDS011;69234;47.446;21.636;2024-03-29T02:11:00;0.63;;;0.63;;
79751;SDS011;69234;47.446;21.636;2024-03-29T02:11:31;0.60;;;0.60;;
79751;SDS011;69234;47.446;21.636;2024-03-29T02:12:04;0.67;;;0.67;;
79751;SDS011;69234;47.446;21.636;2024-03-29T02:12:35;0.80;;;0.80;;
79751;SDS011;69234;47.446;21.636;2024-03-29T02:13:06;0.77;;;0.77;;
79751;SDS011;69234;47.446;21.636;2024-03-29T02:13:37;0.70;;;0.70;;
79751;SDS011;69234;47.446;21.636;2024-03-29T02:14:08;0.87;;;0.87;;
79751;SDS011;69234;47.446;21.636;2024-03-29T02:14:38;1.10;;;1.10;;
79751;SDS011;69234;47.446;21.636;2024-03-29T02:15:14;0.93;;;0.93;;
79751;SDS011;69234;47.446;21.636;2024-03-29T02:15:48;0.87;;;0.87;;
79751;SDS011;69234;47.446;21.636;2024-03-29T02:16:19;0.73;;;0.73;;
79751;SDS011;69234;47.446;21.636;2024-03-29T02:16:50;0.87;;;0.87;;
79751;SDS011;69234;47.446;21.636;2024-03-29T02:17:21;0.77;;;0.77;;
79751;SDS011;69234;47.446;21.636;2024-03-29T02:17:52;0.80;;;0.80;;
79751;SDS011;69234;47.446;21.636;2024-03-29T02:18:23;0.83;;;0.83;;
79751;SDS011;69234;47.446;21.636;2024-03-29T02:18:54;0.87;;;0.87;;
79751;SDS011;69234;47.446;21.636;2024-03-29T02:19:25;0.90;;;0.90;;
79751;SDS011;69234;47.446;21.636;2024-03-29T02:19:56;0.97;;;0.97;;
79751;SDS011;69234;47.446;21.636;2024-03-29T02:20:27;0.93;;;0.93;;
79751;SDS011;69234;47.446;21.636;2024-03-29T02:20:59;0.90;;;0.90;;
79751;SDS011;69234;47.446;21.636;2024-03-29T02:21:30;1.03;;;1.03;;
79751;SDS011;69234;47.446;21.636;2024-03-29T02:22:07;0.93;;;0.93;;
79751;SDS011;69234;47.446;21.636;2024-03-29T02:22:45;0.77;;;0.77;;
79751;SDS011;69234;47.446;21.636;2024-03-29T02:23:44;0.70;;;0.70;;
79751;SDS011;69234;47.446;21.636;2024-03-29T02:24:21;0.90;;;0.90;;
79751;SDS011;69234;47.446;21.636;2024-03-29T02:24:52;1.07;;;1.07;;
79751;SDS011;69234;47.446;21.636;2024-03-29T02:25:23;1.00;;;1.00;;
79751;SDS011;69234;47.446;21.636;2024-03-29T02:25:55;0.83;;;0.83;;
79751;SDS011;69234;47.446;21.636;2024-03-29T02:26:26;0.90;;;0.90;;
79751;SDS011;69234;47.446;21.636;2024-03-29T02:27:01;0.93;;;0.93;;
79751;SDS011;69234;47.446;21.636;2024-03-29T02:27:32;0.90;;;0.90;;
79751;SDS011;69234;47.446;21.636;2024-03-29T02:28:03;0.63;;;0.63;;
79751;SDS011;69234;47.446;21.636;2024-03-29T02:28:35;0.73;;;0.73;;
79751;SDS011;69234;47.446;21.636;2024-03-29T02:29:06;1.00;;;1.00;;
79751;SDS011;69234;47.446;21.636;2024-03-29T02:29:37;0.87;;;0.87;;
79751;SDS011;69234;47.446;21.636;2024-03-29T02:30:08;0.80;;;0.80;;
79751;SDS011;69234;47.446;21.636;2024-03-29T02:30:43;0.77;;;0.77;;
79751;SDS011;69234;47.446;21.636;2024-03-29T02:31:14;0.83;;;0.83;;
79751;SDS011;69234;47.446;21.636;2024-03-29T02:31:45;0.70;;;0.70;;
79751;SDS011;69234;47.446;21.636;2024-03-29T02:32:16;0.90;;;0.90;;
79751;SDS011;69234;47.446;21.636;2024-03-29T02:32:47;0.77;;;0.77;;
79751;SDS011;69234;47.446;21.636;2024-03-29T02:33:20;0.73;;;0.73;;
79751;SDS011;69234;47.446;21.636;2024-03-29T02:33:52;0.80;;;0.80;;
79751;SDS011;69234;47.446;21.636;2024-03-29T02:34:23;0.73;;;0.73;;
79751;SDS011;69234;47.446;21.636;2024-03-29T02:34:54;0.70;;;0.70;;
79751;SDS011;69234;47.446;21.636;2024-03-29T02:35:25;0.97;;;0.97;;
79751;SDS011;69234;47.446;21.636;2024-03-29T02:35:57;0.97;;;0.97;;
79751;SDS011;69234;47.446;21.636;2024-03-29T02:36:28;0.97;;;0.97;;
79751;SDS011;69234;47.446;21.636;2024-03-29T02:36:59;1.00;;;1.00;;
79751;SDS011;69234;47.446;21.636;2024-03-29T02:37:31;0.97;;;0.97;;
79751;SDS011;69234;47.446;21.636;2024-03-29T02:38:02;0.77;;;0.77;;
79751;SDS011;69234;47.446;21.636;2024-03-29T02:38:33;0.73;;;0.73;;
79751;SDS011;69234;47.446;21.636;2024-03-29T02:39:04;0.90;;;0.90;;
79751;SDS011;69234;47.446;21.636;2024-03-29T02:39:35;1.03;;;1.03;;
79751;SDS011;69234;47.446;21.636;2024-03-29T02:40:06;1.00;;;1.00;;
79751;SDS011;69234;47.446;21.636;2024-03-29T02:40:39;0.97;;;0.97;;
79751;SDS011;69234;47.446;21.636;2024-03-29T02:41:10;1.20;;;1.20;;
79751;SDS011;69234;47.446;21.636;2024-03-29T02:41:41;1.07;;;1.07;;
79751;SDS011;69234;47.446;21.636;2024-03-29T02:42:12;1.13;;;1.13;;
79751;SDS011;69234;47.446;21.636;2024-03-29T02:42:43;0.97;;;0.97;;
79751;SDS011;69234;47.446;21.636;2024-03-29T02:43:13;0.93;;;0.93;;
79751;SDS011;69234;47.446;21.636;2024-03-29T02:43:44;1.07;;;1.07;;
79751;SDS011;69234;47.446;21.636;2024-03-29T02:44:15;1.03;;;1.03;;
79751;SDS011;69234;47.446;21.636;2024-03-29T02:44:46;0.80;;;0.80;;
79751;SDS011;69234;47.446;21.636;2024-03-29T02:45:17;1.03;;;1.03;;
79751;SDS011;69234;47.446;21.636;2024-03-29T02:45:48;0.97;;;0.97;;
79751;SDS011;69234;47.446;21.636;2024-03-29T02:46:19;1.07;;;1.07;;
79751;SDS011;69234;47.446;21.636;2024-03-29T02:46:50;1.37;;;1.37;;
79751;SDS011;69234;47.446;21.636;2024-03-29T02:47:21;1.50;;;1.50;;
79751;SDS011;69234;47.446;21.636;2024-03-29T02:47:53;1.40;;;1.40;;
79751;SDS011;69234;47.446;21.636;2024-03-29T02:48:23;1.20;;;1.20;;
79751;SDS011;69234;47.446;21.636;2024-03-29T02:48:54;1.20;;;1.20;;
79751;SDS011;69234;47.446;21.636;2024-03-29T02:49:25;1.07;;;1.07;;
79751;SDS011;69234;47.446;21.636;2024-03-29T02:49:56;1.13;;;1.13;;
79751;SDS011;69234;47.446;21.636;2024-03-29T02:50:27;1.30;;;1.30;;
79751;SDS011;69234;47.446;21.636;2024-03-29T02:50:58;1.33;;;1.33;;
79751;SDS011;69234;47.446;21.636;2024-03-29T02:51:29;1.47;;;1.47;;
79751;SDS011;69234;47.446;21.636;2024-03-29T02:52:00;1.23;;;1.23;;
79751;SDS011;69234;47.446;21.636;2024-03-29T02:52:31;1.13;;;1.13;;
79751;SDS011;69234;47.446;21.636;2024-03-29T02:53:02;1.27;;;1.27;;
79751;SDS011;69234;47.446;21.636;2024-03-29T02:53:33;1.20;;;1.20;;
79751;SDS011;69234;47.446;21.636;2024-03-29T02:54:23;1.37;;;1.37;;
79751;SDS011;69234;47.446;21.636;2024-03-29T02:54:54;1.27;;;1.27;;
79751;SDS011;69234;47.446;21.636;2024-03-29T02:55:25;1.37;;;1.37;;
79751;SDS011;69234;47.446;21.636;2024-03-29T02:55:56;1.40;;;1.40;;
79751;SDS011;69234;47.446;21.636;2024-03-29T02:56:27;1.37;;;1.37;;
79751;SDS011;69234;47.446;21.636;2024-03-29T02:56:58;1.43;;;1.43;;
79751;SDS011;69234;47.446;21.636;2024-03-29T02:57:29;1.57;;;1.57;;
79751;SDS011;69234;47.446;21.636;2024-03-29T02:58:00;1.50;;;1.50;;
79751;SDS011;69234;47.446;21.636;2024-03-29T02:58:30;1.40;;;1.40;;
79751;SDS011;69234;47.446;21.636;2024-03-29T02:59:01;1.40;;;1.40;;
79751;SDS011;69234;47.446;21.636;2024-03-29T02:59:32;1.47;;;1.47;;
79751;SDS011;69234;47.446;21.636;2024-03-29T03:00:04;1.40;;;1.40;;
79751;SDS011;69234;47.446;21.636;2024-03-29T03:00:36;1.40;;;1.40;;
79751;SDS011;69234;47.446;21.636;2024-03-29T03:01:07;1.40;;;1.40;;
79751;SDS011;69234;47.446;21.636;2024-03-29T03:01:39;1.57;;;1.57;;
79751;SDS011;69234;47.446;21.636;2024-03-29T03:02:11;1.40;;;1.40;;
79751;SDS011;69234;47.446;21.636;2024-03-29T03:02:41;1.23;;;1.23;;
79751;SDS011;69234;47.446;21.636;2024-03-29T03:03:14;1.63;;;1.63;;
79751;SDS011;69234;47.446;21.636;2024-03-29T03:03:47;1.57;;;1.57;;
79751;SDS011;69234;47.446;21.636;2024-03-29T03:04:17;1.57;;;1.57;;
79751;SDS011;69234;47.446;21.636;2024-03-29T03:04:48;1.43;;;1.43;;
79751;SDS011;69234;47.446;21.636;2024-03-29T03:05:19;1.37;;;1.37;;
79751;SDS011;69234;47.446;21.636;2024-03-29T03:05:50;1.47;;;1.47;;
79751;SDS011;69234;47.446;21.636;2024-03-29T03:06:22;1.77;;;1.77;;
79751;SDS011;69234;47.446;21.636;2024-03-29T03:06:53;1.60;;;1.60;;
79751;SDS011;69234;47.446;21.636;2024-03-29T03:07:26;1.27;;;1.27;;